createdAt,value
2017-08-27T00:02:15.439Z,76.70
2017-08-27T00:04:43.333Z,76.60
2017-08-27T00:07:10.906Z,76.10
2017-08-27T00:09:38.560Z,76.50
2017-08-27T00:12:06.213Z,76.10
2017-08-27T00:14:33.817Z,76.70
2017-08-27T00:17:01.404Z,77.00
2017-08-27T00:19:29.074Z,76.90
2017-08-27T00:21:56.744Z,77.00
2017-08-27T00:24:24.317Z,77.00
2017-08-27T00:26:51.930Z,77.30
2017-08-27T00:29:19.529Z,77.30
2017-08-27T00:31:47.106Z,76.80
2017-08-27T00:34:14.714Z,76.80
2017-08-27T00:36:42.302Z,77.10
2017-08-27T00:39:09.922Z,77.00
2017-08-27T00:41:37.530Z,77.10
2017-08-27T00:44:05.232Z,76.80
2017-08-27T00:46:32.887Z,76.50
2017-08-27T00:49:00.491Z,76.50
2017-08-27T00:51:28.121Z,76.30
2017-08-27T00:53:55.755Z,76.30
2017-08-27T00:56:25.672Z,76.10
2017-08-27T00:58:53.246Z,74.40
2017-08-27T01:01:20.860Z,74.20
2017-08-27T01:03:48.450Z,74.00
2017-08-27T01:06:16.177Z,74.10
2017-08-27T01:08:43.789Z,74.50
2017-08-27T01:11:11.424Z,74.50
2017-08-27T01:13:39.112Z,74.40
2017-08-27T01:16:06.708Z,75.00
2017-08-27T01:18:34.284Z,75.20
2017-08-27T01:21:01.945Z,75.50
2017-08-27T01:23:29.509Z,74.60
2017-08-27T01:25:57.104Z,74.80
2017-08-27T01:28:24.864Z,75.00
2017-08-27T01:30:52.688Z,75.20
2017-08-27T01:33:20.274Z,75.30
2017-08-27T01:35:47.885Z,75.40
2017-08-27T01:38:15.480Z,75.50
2017-08-27T01:40:43.146Z,75.70
2017-08-27T01:43:10.794Z,76.00
2017-08-27T01:45:38.352Z,76.20
2017-08-27T01:48:05.923Z,76.30
2017-08-27T01:50:33.535Z,76.30
2017-08-27T01:53:01.097Z,76.50
2017-08-27T01:55:28.727Z,76.60
2017-08-27T01:57:56.343Z,76.60
2017-08-27T02:00:23.912Z,76.60
2017-08-27T02:02:51.504Z,76.80
2017-08-27T02:05:20.003Z,76.90
2017-08-27T02:07:47.596Z,77.10
2017-08-27T02:10:15.226Z,77.10
2017-08-27T02:12:42.804Z,77.20
2017-08-27T02:15:10.406Z,77.40
2017-08-27T02:17:37.982Z,77.60
2017-08-27T02:20:05.618Z,77.80
2017-08-27T02:22:33.215Z,77.90
2017-08-27T02:25:00.855Z,77.90
2017-08-27T02:27:28.453Z,78.00
2017-08-27T02:29:56.057Z,78.20
2017-08-27T02:32:23.677Z,78.40
2017-08-27T02:34:52.206Z,78.30
2017-08-27T02:37:19.782Z,78.10
2017-08-27T02:39:47.803Z,78.00
2017-08-27T02:42:15.432Z,78.00
2017-08-27T02:44:43.034Z,78.00
2017-08-27T02:47:10.662Z,78.50
2017-08-27T02:49:38.270Z,78.40
2017-08-27T02:52:05.845Z,79.10
2017-08-27T02:54:33.443Z,78.50
2017-08-27T02:57:01.074Z,78.70
2017-08-27T02:59:29.378Z,79.00
2017-08-27T03:01:58.070Z,79.20
2017-08-27T03:04:25.726Z,79.30
2017-08-27T03:06:53.356Z,79.70
2017-08-27T03:09:20.960Z,79.80
2017-08-27T03:11:48.582Z,80.00
2017-08-27T03:14:16.194Z,80.20
2017-08-27T03:16:43.789Z,80.40
2017-08-27T03:19:11.359Z,80.70
2017-08-27T03:21:38.979Z,80.80
2017-08-27T03:24:07.406Z,81.00
2017-08-27T03:26:35.016Z,81.10
2017-08-27T03:29:02.635Z,81.20
2017-08-27T03:31:30.238Z,81.50
2017-08-27T03:33:58.140Z,81.70
2017-08-27T03:36:25.742Z,81.90
2017-08-27T03:38:53.392Z,82.20
2017-08-27T03:41:21.012Z,82.20
2017-08-27T03:43:48.652Z,82.10
2017-08-27T03:46:16.253Z,82.20
2017-08-27T03:48:43.896Z,82.30
2017-08-27T03:51:11.503Z,82.50
2017-08-27T03:53:39.174Z,82.60
2017-08-27T03:56:07.098Z,82.90
2017-08-27T03:58:34.692Z,83.00
2017-08-27T04:01:02.279Z,83.10
2017-08-27T04:03:29.873Z,83.60
2017-08-27T04:05:57.461Z,84.20
2017-08-27T04:08:25.073Z,84.00
2017-08-27T04:10:52.669Z,84.30
2017-08-27T04:13:20.281Z,84.20
2017-08-27T04:15:47.869Z,84.30
2017-08-27T04:20:49.618Z,84.30
2017-08-27T04:23:17.228Z,84.90
2017-08-27T04:25:44.827Z,85.50
2017-08-27T04:28:12.469Z,85.40
2017-08-27T04:30:40.073Z,85.00
2017-08-27T04:33:07.659Z,85.30
2017-08-27T04:35:35.286Z,85.40
2017-08-27T04:38:02.886Z,85.60
2017-08-27T04:40:31.175Z,85.80
2017-08-27T04:42:58.771Z,86.00
2017-08-27T04:45:26.414Z,86.10
2017-08-27T04:47:54.006Z,86.20
2017-08-27T04:50:21.589Z,86.00
2017-08-27T04:52:49.224Z,86.00
2017-08-27T04:55:16.881Z,86.00
2017-08-27T04:57:44.525Z,86.10
2017-08-27T05:00:12.124Z,86.10
2017-08-27T05:02:39.738Z,86.40
2017-08-27T05:05:07.417Z,86.40
2017-08-27T05:07:35.028Z,86.90
2017-08-27T05:10:02.621Z,86.60
2017-08-27T05:12:30.209Z,86.20
2017-08-27T05:14:57.836Z,86.30
2017-08-27T05:17:25.460Z,86.10
2017-08-27T05:19:53.055Z,86.00
2017-08-27T05:22:20.654Z,85.80
2017-08-27T05:24:48.514Z,85.60
2017-08-27T05:27:16.086Z,85.40
2017-08-27T05:29:43.665Z,85.40
2017-08-27T05:32:11.268Z,85.30
2017-08-27T05:34:38.827Z,85.70
2017-08-27T05:37:06.506Z,85.90
2017-08-27T05:39:34.116Z,85.70
2017-08-27T05:42:01.705Z,86.30
2017-08-27T05:44:29.311Z,85.80
2017-08-27T05:46:56.920Z,85.60
2017-08-27T05:49:24.556Z,85.60
2017-08-27T05:51:52.134Z,85.30
2017-08-27T05:54:19.821Z,85.50
2017-08-27T05:56:47.428Z,85.10
2017-08-27T05:59:15.019Z,84.80
2017-08-27T06:01:42.613Z,84.40
2017-08-27T06:04:10.223Z,84.20
2017-08-27T06:06:37.832Z,83.60
2017-08-27T06:09:05.455Z,82.80
2017-08-27T06:11:33.072Z,82.60
2017-08-27T06:14:01.082Z,82.80
2017-08-27T06:16:28.660Z,82.40
2017-08-27T06:18:56.248Z,81.80
2017-08-27T06:21:23.890Z,80.70
2017-08-27T06:23:51.502Z,79.40
2017-08-27T06:26:19.089Z,78.70
2017-08-27T06:28:46.688Z,79.90
2017-08-27T06:31:14.289Z,80.80
2017-08-27T06:33:41.937Z,81.90
2017-08-27T06:36:09.602Z,82.20
2017-08-27T06:38:37.233Z,82.80
2017-08-27T06:41:04.886Z,82.70
2017-08-27T06:43:32.524Z,82.50
2017-08-27T06:46:00.216Z,81.70
2017-08-27T06:48:27.848Z,82.00
2017-08-27T06:50:55.465Z,81.80
2017-08-27T06:53:23.107Z,81.30
2017-08-27T06:55:50.790Z,81.50
2017-08-27T06:58:18.430Z,80.60
2017-08-27T07:00:46.037Z,81.00
2017-08-27T07:03:13.645Z,81.00
2017-08-27T07:05:41.242Z,81.20
2017-08-27T07:08:08.865Z,80.80
2017-08-27T07:10:36.482Z,80.60
2017-08-27T07:13:04.057Z,79.80
2017-08-27T07:15:31.815Z,80.10
2017-08-27T07:17:59.410Z,80.50
2017-08-27T07:20:26.966Z,78.50
2017-08-27T07:22:54.561Z,79.20
2017-08-27T07:25:22.161Z,77.90
2017-08-27T07:27:49.753Z,78.30
2017-08-27T07:30:17.366Z,77.30
2017-08-27T07:32:44.965Z,77.20
2017-08-27T07:35:12.539Z,77.10
2017-08-27T07:37:40.844Z,77.40
2017-08-27T07:40:08.444Z,77.10
2017-08-27T07:42:36.058Z,77.30
2017-08-27T07:45:03.668Z,76.20
2017-08-27T07:47:31.264Z,76.10
2017-08-27T07:49:58.884Z,76.20
2017-08-27T07:52:26.530Z,75.30
2017-08-27T07:54:54.146Z,73.00
2017-08-27T07:57:21.775Z,73.30
2017-08-27T07:59:49.373Z,72.50
2017-08-27T08:02:16.978Z,71.10
2017-08-27T08:04:44.619Z,70.90
2017-08-27T08:07:12.260Z,72.00
2017-08-27T08:09:39.882Z,70.80
2017-08-27T08:12:07.486Z,69.60
2017-08-27T08:14:35.110Z,70.40
2017-08-27T08:17:02.727Z,70.20
2017-08-27T08:19:30.342Z,69.40
2017-08-27T08:21:57.984Z,68.60
2017-08-27T08:24:25.542Z,68.70
2017-08-27T08:26:53.621Z,69.30
2017-08-27T08:29:22.192Z,69.40
2017-08-27T08:31:49.848Z,69.70
2017-08-27T08:34:17.501Z,68.20
2017-08-27T08:36:45.089Z,67.80
2017-08-27T08:39:12.710Z,67.30
2017-08-27T08:41:40.275Z,67.40
2017-08-27T08:44:07.865Z,67.50
2017-08-27T08:46:35.472Z,67.10
2017-08-27T08:49:03.067Z,65.70
2017-08-27T08:51:30.696Z,64.40
2017-08-27T08:53:58.272Z,65.30
2017-08-27T08:56:27.958Z,65.90
2017-08-27T08:58:55.573Z,65.00
2017-08-27T09:01:23.152Z,64.80
2017-08-27T09:03:50.878Z,64.90
2017-08-27T09:06:18.425Z,62.80
2017-08-27T09:08:46.043Z,63.00
2017-08-27T09:11:13.672Z,60.40
2017-08-27T09:13:41.295Z,61.70
2017-08-27T09:16:08.867Z,61.40
2017-08-27T09:18:36.423Z,61.70
2017-08-27T09:21:04.068Z,61.60
2017-08-27T09:23:31.642Z,62.00
2017-08-27T09:25:59.239Z,62.50
2017-08-27T09:28:26.861Z,61.60
2017-08-27T09:30:54.448Z,60.50
2017-08-27T09:33:22.063Z,59.00
2017-08-27T09:35:50.215Z,59.50
2017-08-27T09:38:17.831Z,59.50
2017-08-27T09:40:45.442Z,59.00
2017-08-27T09:43:13.048Z,59.00
2017-08-27T09:45:40.639Z,57.00
2017-08-27T09:48:08.252Z,56.40
2017-08-27T09:50:35.864Z,56.30
2017-08-27T09:53:03.480Z,56.90
2017-08-27T09:55:31.081Z,56.10
2017-08-27T09:57:58.688Z,57.30
2017-08-27T10:00:26.312Z,57.50
2017-08-27T10:02:53.973Z,57.50
2017-08-27T10:05:21.608Z,57.30
2017-08-27T10:07:49.225Z,57.80
2017-08-27T10:10:16.892Z,57.90
2017-08-27T10:12:44.472Z,56.60
2017-08-27T10:15:12.076Z,56.50
2017-08-27T10:17:39.699Z,56.10
2017-08-27T10:20:07.319Z,56.50
2017-08-27T10:22:34.865Z,56.00
2017-08-27T10:25:02.504Z,54.90
2017-08-27T10:27:30.079Z,53.90
2017-08-27T10:29:57.741Z,54.20
2017-08-27T10:32:25.360Z,53.70
2017-08-27T10:34:52.940Z,53.60
2017-08-27T10:37:20.545Z,52.60
2017-08-27T10:39:48.863Z,52.60
2017-08-27T10:42:18.171Z,53.10
2017-08-27T10:44:45.799Z,53.20
2017-08-27T10:47:13.468Z,51.60
2017-08-27T10:49:41.033Z,50.10
2017-08-27T10:52:08.634Z,50.70
2017-08-27T10:54:36.229Z,50.50
2017-08-27T10:57:03.836Z,51.20
2017-08-27T10:59:32.381Z,51.20
2017-08-27T11:01:59.969Z,49.80
2017-08-27T11:04:27.669Z,46.80
2017-08-27T11:06:55.253Z,47.50
2017-08-27T11:10:27.818Z,47.40
2017-08-27T11:12:55.404Z,47.10
2017-08-27T11:15:23.019Z,47.60
2017-08-27T11:17:50.645Z,48.20
2017-08-27T11:20:18.259Z,48.80
2017-08-27T11:22:45.853Z,48.60
2017-08-27T11:25:13.539Z,48.10
2017-08-27T11:27:41.244Z,49.80
2017-08-27T11:30:08.841Z,49.40
2017-08-27T11:32:36.466Z,49.20
2017-08-27T11:35:04.108Z,48.40
2017-08-27T11:37:31.715Z,49.90
2017-08-27T11:39:59.357Z,50.30
2017-08-27T11:42:26.951Z,48.70
2017-08-27T11:44:54.593Z,47.90
2017-08-27T11:47:22.196Z,48.20
2017-08-27T11:49:49.761Z,47.50
2017-08-27T11:52:17.383Z,47.70
2017-08-27T11:54:44.993Z,46.90
2017-08-27T11:57:12.627Z,46.90
2017-08-27T11:59:40.221Z,46.70
2017-08-27T12:02:07.852Z,46.40
2017-08-27T12:04:35.882Z,47.10
2017-08-27T12:07:03.538Z,47.50
2017-08-27T12:09:31.103Z,47.70
2017-08-27T12:11:58.759Z,47.80
2017-08-27T12:14:26.359Z,48.20
2017-08-27T12:16:53.953Z,48.10
2017-08-27T12:19:21.590Z,47.90
2017-08-27T12:21:49.175Z,47.80
2017-08-27T12:24:16.777Z,47.70
2017-08-27T12:26:44.376Z,46.30
2017-08-27T12:29:12.002Z,46.90
2017-08-27T12:34:13.546Z,47.10
2017-08-27T12:36:41.659Z,46.60
2017-08-27T12:39:09.243Z,46.40
2017-08-27T12:41:36.908Z,46.30
2017-08-27T12:44:04.546Z,47.00
2017-08-27T12:46:32.154Z,46.80
2017-08-27T12:48:59.842Z,46.60
2017-08-27T12:51:28.213Z,47.70
2017-08-27T12:53:55.837Z,48.10
2017-08-27T12:56:23.439Z,48.00
2017-08-27T12:58:51.169Z,47.40
2017-08-27T13:01:18.823Z,47.80
2017-08-27T13:03:46.450Z,47.40
2017-08-27T13:06:14.035Z,47.20
2017-08-27T13:08:41.681Z,46.40
2017-08-27T13:11:09.239Z,47.00
2017-08-27T13:13:36.816Z,46.10
2017-08-27T13:16:05.032Z,46.20
2017-08-27T13:18:32.864Z,46.30
2017-08-27T13:21:00.514Z,45.50
2017-08-27T13:23:28.233Z,45.60
2017-08-27T13:25:55.887Z,45.60
2017-08-27T13:28:23.488Z,45.30
2017-08-27T13:30:51.136Z,45.30
2017-08-27T13:33:18.732Z,46.00
2017-08-27T13:35:46.323Z,45.90
2017-08-27T13:38:13.948Z,46.20
2017-08-27T13:40:41.587Z,46.00
2017-08-27T13:43:09.190Z,46.50
2017-08-27T13:45:36.895Z,45.90
2017-08-27T13:48:04.505Z,44.80
2017-08-27T13:50:32.846Z,44.40
2017-08-27T13:53:00.539Z,43.10
2017-08-27T13:55:28.171Z,44.60
2017-08-27T13:57:55.782Z,45.20
2017-08-27T14:00:23.484Z,45.00
2017-08-27T14:02:51.121Z,45.20
2017-08-27T14:05:18.741Z,45.60
2017-08-27T14:07:46.418Z,46.40
2017-08-27T14:10:14.010Z,45.50
2017-08-27T14:12:41.575Z,45.50
2017-08-27T14:15:09.196Z,45.80
2017-08-27T14:17:36.767Z,45.50
2017-08-27T14:20:04.398Z,45.50
2017-08-27T14:22:32.015Z,44.90
2017-08-27T14:25:00.167Z,45.20
2017-08-27T14:27:27.770Z,44.60
2017-08-27T14:29:55.382Z,44.60
2017-08-27T14:32:22.973Z,44.20
2017-08-27T14:34:50.607Z,44.90
2017-08-27T14:37:18.218Z,45.60
2017-08-27T14:39:45.782Z,45.40
2017-08-27T14:42:13.371Z,44.80
2017-08-27T14:44:40.951Z,45.40
2017-08-27T14:47:08.635Z,45.50
2017-08-27T14:49:36.360Z,45.50
2017-08-27T14:52:04.028Z,45.10
2017-08-27T14:54:31.657Z,45.10
2017-08-27T14:56:59.832Z,45.50
2017-08-27T14:59:27.481Z,46.20
2017-08-27T15:01:55.079Z,44.80
2017-08-27T15:04:22.740Z,44.70
2017-08-27T15:06:51.112Z,45.20
2017-08-27T15:09:18.696Z,45.10
2017-08-27T15:11:46.348Z,45.30
2017-08-27T15:14:14.040Z,45.40
2017-08-27T15:16:41.635Z,45.40
2017-08-27T15:19:09.350Z,45.60
2017-08-27T15:21:37.017Z,45.40
2017-08-27T15:24:04.633Z,45.50
2017-08-27T15:26:32.293Z,45.80
2017-08-27T15:28:59.889Z,45.60
2017-08-27T15:31:27.484Z,45.60
2017-08-27T15:33:55.105Z,45.40
2017-08-27T15:36:22.724Z,44.90
2017-08-27T15:38:50.275Z,44.60
2017-08-27T15:41:17.889Z,44.00
2017-08-27T15:43:45.556Z,44.30
2017-08-27T15:46:13.163Z,44.30
2017-08-27T15:48:40.817Z,44.50
2017-08-27T15:51:08.486Z,44.60
2017-08-27T15:53:36.057Z,44.40
2017-08-27T15:56:03.665Z,44.30
2017-08-27T15:58:31.266Z,44.40
2017-08-27T16:00:58.846Z,44.20
2017-08-27T16:03:26.480Z,44.20
2017-08-27T16:05:54.131Z,44.60
2017-08-27T16:08:21.782Z,44.20
2017-08-27T16:10:49.440Z,44.10
2017-08-27T16:13:17.030Z,44.10
2017-08-27T16:15:44.605Z,44.40
2017-08-27T16:18:12.238Z,44.50
2017-08-27T16:20:39.915Z,45.50
2017-08-27T16:23:07.546Z,45.80
2017-08-27T16:25:35.198Z,46.00
2017-08-27T16:28:02.797Z,46.40
2017-08-27T16:30:30.391Z,46.40
2017-08-27T16:32:58.109Z,46.30
2017-08-27T16:35:25.797Z,46.60
2017-08-27T16:37:53.447Z,46.60
2017-08-27T16:40:21.070Z,46.30
2017-08-27T16:42:48.735Z,46.10
2017-08-27T16:45:16.385Z,46.30
2017-08-27T16:47:44.023Z,46.70
2017-08-27T16:50:11.895Z,46.10
2017-08-27T16:52:39.586Z,46.00
2017-08-27T16:55:07.179Z,45.70
2017-08-27T16:57:34.806Z,46.00
2017-08-27T17:00:02.477Z,46.10
2017-08-27T17:02:30.074Z,46.10
2017-08-27T17:04:57.741Z,46.50
2017-08-27T17:07:25.354Z,46.50
2017-08-27T17:09:52.936Z,46.20
2017-08-27T17:12:20.564Z,46.10
2017-08-27T17:14:48.206Z,46.00
2017-08-27T17:17:24.588Z,46.30
2017-08-27T17:19:52.261Z,46.10
2017-08-27T17:22:19.879Z,46.40
2017-08-27T17:24:47.607Z,45.00
2017-08-27T17:27:15.265Z,45.50
2017-08-27T17:29:42.952Z,45.50
2017-08-27T17:32:10.597Z,45.50
2017-08-27T17:34:38.183Z,44.70
2017-08-27T17:37:05.784Z,43.70
2017-08-27T17:39:33.538Z,43.50
2017-08-27T17:42:01.120Z,42.50
2017-08-27T17:44:28.935Z,41.80
2017-08-27T17:46:56.562Z,42.40
2017-08-27T17:49:24.624Z,42.10
2017-08-27T17:51:52.264Z,41.90
2017-08-27T17:54:19.908Z,41.50
2017-08-27T17:56:47.503Z,41.70
2017-08-27T17:59:15.259Z,42.40
2017-08-27T18:01:42.868Z,43.30
2017-08-27T18:04:10.449Z,44.50
2017-08-27T18:06:38.145Z,45.20
2017-08-27T18:09:05.762Z,46.20
2017-08-27T18:11:33.420Z,47.30
2017-08-27T18:14:00.970Z,47.90
2017-08-27T18:16:28.701Z,48.60
2017-08-27T18:18:56.494Z,49.40
2017-08-27T18:21:24.065Z,49.60
2017-08-27T18:23:51.674Z,50.30
2017-08-27T18:26:19.307Z,50.90
2017-08-27T18:28:46.871Z,50.90
2017-08-27T18:31:14.577Z,51.30
2017-08-27T18:33:42.217Z,52.00
2017-08-27T18:36:09.821Z,52.30
2017-08-27T18:38:37.495Z,52.50
2017-08-27T18:41:05.857Z,52.80
2017-08-27T18:43:33.580Z,53.00
2017-08-27T18:46:01.271Z,53.10
2017-08-27T18:48:28.891Z,53.30
2017-08-27T18:50:56.580Z,53.60
2017-08-27T18:53:24.208Z,54.30
2017-08-27T18:55:51.857Z,54.60
2017-08-27T18:58:20.374Z,55.30
2017-08-27T19:00:47.965Z,55.60
2017-08-27T19:03:15.641Z,56.20
2017-08-27T19:05:44.307Z,56.60
2017-08-27T19:08:11.876Z,57.00
2017-08-27T19:10:39.514Z,57.20
2017-08-27T19:13:07.957Z,57.40
2017-08-27T19:15:35.531Z,57.80
2017-08-27T19:18:03.205Z,57.80
2017-08-27T19:20:31.499Z,58.00
2017-08-27T19:22:59.138Z,58.00
2017-08-27T19:25:26.751Z,58.70
2017-08-27T19:27:54.335Z,59.30
2017-08-27T19:30:21.946Z,59.60
2017-08-27T19:32:49.576Z,59.80
2017-08-27T19:35:17.199Z,60.20
2017-08-27T19:37:45.530Z,60.00
2017-08-27T19:40:13.198Z,60.80
2017-08-27T19:42:40.840Z,60.80
2017-08-27T19:45:08.541Z,61.40
2017-08-27T19:47:37.012Z,61.70
2017-08-27T19:50:05.589Z,61.70
2017-08-27T19:52:33.195Z,61.50
2017-08-27T19:55:00.787Z,61.90
2017-08-27T19:57:28.405Z,62.40
2017-08-27T19:59:56.094Z,62.70
2017-08-27T20:02:24.220Z,63.90
2017-08-27T20:04:52.492Z,65.30
2017-08-27T20:07:20.109Z,65.30
2017-08-27T20:09:48.430Z,65.70
2017-08-27T20:12:16.069Z,65.70
2017-08-27T20:14:43.747Z,66.00
2017-08-27T20:17:11.376Z,65.60
2017-08-27T20:19:39.406Z,65.80
2017-08-27T20:22:07.036Z,67.10
2017-08-27T20:24:34.647Z,66.50
2017-08-27T20:27:02.283Z,66.70
2017-08-27T20:29:29.945Z,66.40
2017-08-27T20:31:57.541Z,65.80
2017-08-27T20:34:25.187Z,65.60
2017-08-27T20:36:52.971Z,66.10
2017-08-27T20:39:20.590Z,66.00
2017-08-27T20:41:49.762Z,66.70
2017-08-27T20:44:17.412Z,66.70
2017-08-27T20:46:45.051Z,67.10
2017-08-27T20:49:12.711Z,67.50
2017-08-27T20:51:40.332Z,67.90
2017-08-27T20:54:07.924Z,68.60
2017-08-27T20:56:35.580Z,68.90
2017-08-27T20:59:03.263Z,69.10
2017-08-27T21:01:30.864Z,69.20
2017-08-27T21:03:58.568Z,69.30
2017-08-27T21:06:26.263Z,69.40
2017-08-27T21:08:53.906Z,69.60
2017-08-27T21:11:21.595Z,69.20
2017-08-27T21:13:49.212Z,68.90
2017-08-27T21:16:16.820Z,68.90
2017-08-27T21:18:44.714Z,68.70
2017-08-27T21:21:13.524Z,69.20
2017-08-27T21:23:41.134Z,69.20
2017-08-27T21:26:08.895Z,69.40
2017-08-27T21:28:36.516Z,69.40
2017-08-27T21:31:04.238Z,69.00
2017-08-27T21:33:31.859Z,69.20
2017-08-27T21:35:59.492Z,69.60
2017-08-27T21:38:27.121Z,69.30
2017-08-27T21:40:54.754Z,69.20
2017-08-27T21:43:22.367Z,68.70
2017-08-27T21:45:50.040Z,68.50
2017-08-27T21:48:17.653Z,68.30
2017-08-27T21:50:45.224Z,68.00
2017-08-27T21:53:12.832Z,68.20
2017-08-27T21:55:40.788Z,68.40
2017-08-27T21:58:08.349Z,68.40
2017-08-27T22:00:36.032Z,68.10
2017-08-27T22:03:03.608Z,68.40
2017-08-27T22:05:31.641Z,68.50
2017-08-27T22:07:59.389Z,68.70
2017-08-27T22:10:26.987Z,68.50
2017-08-27T22:12:54.671Z,68.40
2017-08-27T22:15:22.325Z,68.30
2017-08-27T22:17:49.897Z,68.50
2017-08-27T22:20:17.938Z,68.80
2017-08-27T22:22:45.614Z,69.80
2017-08-27T22:25:13.213Z,68.90
2017-08-27T22:27:40.800Z,69.10
2017-08-27T22:30:08.513Z,69.40
2017-08-27T22:32:36.109Z,69.60
2017-08-27T22:35:04.457Z,69.90
2017-08-27T22:37:32.185Z,70.00
2017-08-27T22:39:59.777Z,70.20
2017-08-27T22:42:27.369Z,71.50
2017-08-27T22:44:55.150Z,71.10
2017-08-27T22:47:22.706Z,70.60
2017-08-27T22:49:50.385Z,70.70
2017-08-27T22:52:17.996Z,71.10
2017-08-27T22:54:45.659Z,71.30
2017-08-27T22:57:13.969Z,72.10
2017-08-27T22:59:42.001Z,72.30
2017-08-27T23:02:10.148Z,72.70
2017-08-27T23:04:37.788Z,73.30
2017-08-27T23:07:05.408Z,73.20
2017-08-27T23:09:33.057Z,73.40
2017-08-27T23:12:00.695Z,73.50
2017-08-27T23:14:28.342Z,73.90
2017-08-27T23:16:55.983Z,74.00
2017-08-27T23:19:23.575Z,73.90
2017-08-27T23:21:51.222Z,73.60
2017-08-27T23:24:18.828Z,73.60
2017-08-27T23:26:46.417Z,73.50
2017-08-27T23:29:14.006Z,73.80
2017-08-27T23:31:41.722Z,73.70
2017-08-27T23:34:09.299Z,73.80
2017-08-27T23:36:36.914Z,73.90
2017-08-27T23:39:04.515Z,74.10
2017-08-27T23:41:32.112Z,74.10
2017-08-27T23:43:59.695Z,74.00
2017-08-27T23:46:27.356Z,73.80
2017-08-27T23:48:55.013Z,74.10
2017-08-27T23:51:22.614Z,74.20
2017-08-27T23:53:50.188Z,74.40
2017-08-27T23:56:17.863Z,74.70
2017-08-27T23:58:45.446Z,74.70
